Dallas, Texas
Traffic Map
Current Weather Conditions
Dallas, Texas
Few Clouds
Few Clouds
28°
Feels Like: 28°
Wind Chill: 28° Ceiling: Unl
Heat Index: 28° Visibility: 10mi
Dew Point: Wind: 15mph
Humidity: 24% Direction: 180° (S)
Pressure: 29.73in Gusts: 21mph
Raw Report DataKDAL 222153Z 18013G18KT 10SM FEW250 28/06 A2973 RMK AO2 SLP063 T02830056
Traffic Incident Summary
Active as of:
Severity:
Category:
InformationThere was an issue retrieving the traffic information for this location. Please try a different location or try again shortly.
Advertisements
Track Severe Weather on mobile